createdAt,value
2016-11-18T00:00:21.075Z,91.64
2016-11-18T00:01:20.716Z,91.55
2016-11-18T00:02:20.458Z,91.74
2016-11-18T00:03:20.367Z,91.93
2016-11-18T00:04:20.468Z,91.74
2016-11-18T00:05:20.568Z,92.03
2016-11-18T00:06:20.839Z,91.93
2016-11-18T00:07:20.681Z,91.64
2016-11-18T00:08:20.585Z,91.83
2016-11-18T00:09:20.821Z,91.93
2016-11-18T00:10:20.570Z,92.12
2016-11-18T00:11:20.832Z,91.64
2016-11-18T00:12:20.241Z,92.69
2016-11-18T00:13:20.601Z,91.83
2016-11-18T00:14:20.356Z,92.32
2016-11-18T00:15:20.600Z,92.12
2016-11-18T00:16:20.604Z,92.79
2016-11-18T00:17:20.455Z,92.5
2016-11-18T00:18:20.575Z,91.93
2016-11-18T00:19:21.088Z,92.03
2016-11-18T00:20:20.696Z,91.64
2016-11-18T00:21:20.575Z,91.74
2016-11-18T00:22:20.844Z,92.6
2016-11-18T00:23:20.970Z,92.6
2016-11-18T00:24:21.317Z,92.5
2016-11-18T00:25:20.821Z,92.6
2016-11-18T00:26:21.682Z,92.22
2016-11-18T00:27:20.605Z,92.5
2016-11-18T00:28:20.485Z,91.83
2016-11-18T00:29:20.851Z,92.69
2016-11-18T00:30:21.176Z,92.03
2016-11-18T00:31:20.854Z,92.5
2016-11-18T00:32:21.309Z,92.5
2016-11-18T00:33:20.833Z,92.41
2016-11-18T00:34:21.324Z,92.6
2016-11-18T00:35:21.300Z,92.6
2016-11-18T00:36:20.975Z,92.32
2016-11-18T00:37:20.976Z,92.32
2016-11-18T00:38:20.714Z,92.6
2016-11-18T00:39:20.611Z,92.12
2016-11-18T00:40:21.334Z,92.69
2016-11-18T00:41:20.822Z,92.5
2016-11-18T00:42:20.974Z,92.98
2016-11-18T00:43:20.712Z,92.79
2016-11-18T00:44:20.862Z,92.41
2016-11-18T00:45:20.970Z,92.5
2016-11-18T00:46:20.978Z,92.03
2016-11-18T00:47:21.225Z,92.03
2016-11-18T00:48:20.861Z,92.12
2016-11-18T00:49:20.823Z,92.5
2016-11-18T00:50:20.973Z,92.12
2016-11-18T00:51:21.210Z,92.5
2016-11-18T00:52:21.320Z,92.41
2016-11-18T00:53:20.860Z,92.32
2016-11-18T00:54:20.866Z,91.93
2016-11-18T00:55:21.226Z,92.22
2016-11-18T00:56:21.077Z,92.6
2016-11-18T00:57:21.108Z,92.6
2016-11-18T00:58:20.987Z,92.22
2016-11-18T00:59:21.083Z,92.32
2016-11-18T01:00:21.350Z,92.69
2016-11-18T01:01:21.713Z,92.5
2016-11-18T01:02:21.236Z,92.41
2016-11-18T01:03:21.468Z,92.6
2016-11-18T01:04:21.213Z,92.79
2016-11-18T01:05:20.941Z,92.79
2016-11-18T01:06:21.475Z,92.5
2016-11-18T01:07:21.308Z,92.98
2016-11-18T01:08:21.080Z,92.98
2016-11-18T01:09:21.245Z,92.98
2016-11-18T01:10:21.072Z,93.55
2016-11-18T01:11:21.321Z,94.03
2016-11-18T01:12:21.329Z,93.84
2016-11-18T01:13:21.323Z,92.69
2016-11-18T01:14:21.463Z,93.08
2016-11-18T01:15:21.364Z,92.88
2016-11-18T01:16:21.348Z,92.6
2016-11-18T01:17:21.452Z,92.5
2016-11-18T01:18:21.345Z,92.79
2016-11-18T01:19:21.358Z,93.27
2016-11-18T01:20:21.461Z,94.03
2016-11-18T01:21:21.862Z,93.08
2016-11-18T01:22:21.730Z,92.88
2016-11-18T01:23:21.827Z,93.55
2016-11-18T01:24:21.723Z,93.93
2016-11-18T01:25:21.576Z,93.55
2016-11-18T01:26:21.927Z,93.65
2016-11-18T01:27:21.960Z,93.65
2016-11-18T01:28:21.964Z,93.46
2016-11-18T01:29:21.478Z,93.55
2016-11-18T01:30:21.937Z,93.36
2016-11-18T01:31:21.494Z,92.98
2016-11-18T01:32:22.084Z,92.6
2016-11-18T01:33:21.816Z,93.36
2016-11-18T01:34:21.765Z,93.36
2016-11-18T01:35:22.090Z,93.17
2016-11-18T01:36:22.299Z,93.17
2016-11-18T01:37:22.044Z,93.46
2016-11-18T01:38:21.935Z,93.65
2016-11-18T01:39:22.093Z,93.74
2016-11-18T01:40:22.289Z,94.03
2016-11-18T01:41:22.058Z,94.03
2016-11-18T01:42:22.057Z,94.79
2016-11-18T01:43:22.222Z,94.89
2016-11-18T01:44:22.067Z,94.41
2016-11-18T01:45:22.458Z,94.98
2016-11-18T01:46:22.093Z,94.7
2016-11-18T01:47:22.326Z,94.79
2016-11-18T01:48:22.303Z,94.51
2016-11-18T01:49:22.219Z,95.27
2016-11-18T01:50:22.346Z,95.65
2016-11-18T01:51:22.219Z,95.65
2016-11-18T01:52:22.590Z,97.27
2016-11-18T01:53:22.825Z,97.85
2016-11-18T01:54:23.164Z,98.51
2016-11-18T01:55:22.418Z,99.22
2016-11-18T01:56:22.942Z,99.99
2016-11-18T01:57:22.439Z,99.99
2016-11-18T01:58:22.461Z,99.99
2016-11-18T01:59:23.071Z,99.99
2016-11-18T02:00:23.149Z,99.99
2016-11-18T02:01:22.542Z,99.99
2016-11-18T02:02:22.426Z,99.99
2016-11-18T02:03:22.801Z,99.99
2016-11-18T02:04:22.592Z,99.99
2016-11-18T02:05:22.824Z,99.99
2016-11-18T02:06:22.580Z,99.99
2016-11-18T02:07:24.243Z,99.99
2016-11-18T02:08:22.948Z,99.99
2016-11-18T02:09:22.953Z,99.99
2016-11-18T02:10:23.053Z,99.99
2016-11-18T02:11:22.814Z,99.99
2016-11-18T02:12:22.831Z,99.99
2016-11-18T02:13:22.711Z,99.99
2016-11-18T02:14:22.720Z,99.99
2016-11-18T02:15:22.785Z,99.99
2016-11-18T02:16:22.799Z,99.99
2016-11-18T02:17:23.631Z,99.99
2016-11-18T02:18:23.758Z,99.99
2016-11-18T02:19:23.174Z,99.99
2016-11-18T02:20:23.079Z,99.99
2016-11-18T02:21:23.781Z,99.99
2016-11-18T02:22:22.953Z,99.99
2016-11-18T02:23:23.070Z,99.99
2016-11-18T02:24:23.187Z,99.99
2016-11-18T02:25:22.702Z,99.99
2016-11-18T02:26:22.946Z,99.99
2016-11-18T02:27:23.672Z,99.99
2016-11-18T02:28:23.071Z,99.99
2016-11-18T02:29:23.440Z,99.99
2016-11-18T02:30:23.654Z,99.99
2016-11-18T02:31:23.441Z,99.99
2016-11-18T02:32:22.809Z,99.99
2016-11-18T02:33:24.995Z,99.99
2016-11-18T02:34:23.441Z,99.99
2016-11-18T02:35:23.079Z,99.99
2016-11-18T02:36:23.558Z,99.99
2016-11-18T02:37:24.283Z,99.99
2016-11-18T02:38:23.445Z,99.99
2016-11-18T02:39:25.841Z,99.99
2016-11-18T02:40:24.053Z,99.99
2016-11-18T02:41:24.250Z,99.99
2016-11-18T02:42:23.909Z,99.99
2016-11-18T02:43:24.286Z,99.99
2016-11-18T02:44:24.408Z,99.99
2016-11-18T02:45:23.326Z,99.99
2016-11-18T02:46:23.925Z,99.99
2016-11-18T02:47:24.273Z,99.99
2016-11-18T02:48:24.164Z,99.99
2016-11-18T02:49:24.271Z,99.99
2016-11-18T02:50:23.337Z,99.99
2016-11-18T02:51:24.177Z,99.99
2016-11-18T02:52:23.915Z,99.99
2016-11-18T02:53:24.165Z,99.99
2016-11-18T02:54:24.289Z,99.99
2016-11-18T02:55:24.403Z,99.99
2016-11-18T02:56:24.533Z,99.99
2016-11-18T02:57:23.454Z,99.99
2016-11-18T02:58:23.335Z,99.99
2016-11-18T02:59:24.171Z,99.99
2016-11-18T03:00:24.064Z,99.89
2016-11-18T03:01:24.417Z,99.99
2016-11-18T03:02:23.804Z,99.99
2016-11-18T03:03:24.169Z,99.89
2016-11-18T03:04:23.461Z,99.99
2016-11-18T03:05:24.050Z,99.7
2016-11-18T03:06:24.655Z,99.99
2016-11-18T03:07:24.278Z,99.99
2016-11-18T03:08:24.420Z,99.51
2016-11-18T03:09:24.056Z,98.8
2016-11-18T03:10:23.939Z,99.13
2016-11-18T03:11:23.702Z,99.18
2016-11-18T03:12:25.019Z,99.85
2016-11-18T03:13:24.181Z,99.85
2016-11-18T03:14:23.927Z,99.99
2016-11-18T03:15:23.804Z,99.99
2016-11-18T03:16:23.684Z,99.99
2016-11-18T03:17:24.659Z,99.99
2016-11-18T03:18:23.807Z,99.7
2016-11-18T03:19:24.020Z,99.22
2016-11-18T03:20:24.066Z,99.75
2016-11-18T03:21:23.945Z,98.13
2016-11-18T03:22:24.188Z,98.7
2016-11-18T03:23:23.908Z,99.27
2016-11-18T03:24:24.863Z,99.85
2016-11-18T03:25:24.049Z,99.66
2016-11-18T03:26:24.906Z,99.22
2016-11-18T03:27:24.431Z,99.27
2016-11-18T03:28:23.822Z,98.7
2016-11-18T03:29:24.387Z,98.8
2016-11-18T03:30:24.398Z,98.9
2016-11-18T03:31:24.045Z,98.8
2016-11-18T03:32:24.069Z,98.32
2016-11-18T03:33:24.054Z,98.8
2016-11-18T03:34:24.030Z,98.56
2016-11-18T03:35:23.930Z,98.36
2016-11-18T03:36:24.288Z,98.18
2016-11-18T03:37:24.404Z,98.56
2016-11-18T03:38:24.311Z,98.27
2016-11-18T03:39:24.298Z,97.03
2016-11-18T03:40:24.431Z,96.84
2016-11-18T03:41:23.928Z,96.32
2016-11-18T03:42:24.077Z,95.27
2016-11-18T03:43:24.286Z,95.37
2016-11-18T03:44:24.076Z,95.27
2016-11-18T03:45:24.286Z,94.32
2016-11-18T03:46:24.075Z,94.89
2016-11-18T03:47:24.163Z,94.98
2016-11-18T03:48:24.761Z,94.79
2016-11-18T03:49:24.650Z,94.7
2016-11-18T03:50:24.421Z,94.7
2016-11-18T03:51:24.660Z,93.55
2016-11-18T03:52:24.418Z,93.74
2016-11-18T03:53:24.082Z,93.74
2016-11-18T03:54:24.434Z,93.55
2016-11-18T03:55:24.438Z,93.84
2016-11-18T03:56:24.316Z,92.5
2016-11-18T03:57:24.290Z,92.88
2016-11-18T03:58:24.422Z,93.08
2016-11-18T03:59:24.685Z,93.65
2016-11-18T04:00:24.441Z,94.03
2016-11-18T04:01:24.763Z,94.22
2016-11-18T04:02:24.680Z,94.51
2016-11-18T04:03:24.658Z,92.98
2016-11-18T04:04:25.018Z,92.5
2016-11-18T04:05:24.677Z,92.6
2016-11-18T04:06:24.421Z,92.32
2016-11-18T04:07:24.545Z,91.6
2016-11-18T04:08:24.326Z,92.36
2016-11-18T04:09:24.928Z,92.17
2016-11-18T04:10:24.444Z,92.32
2016-11-18T04:11:25.036Z,92.69
2016-11-18T04:12:25.011Z,92.5
2016-11-18T04:13:24.825Z,92.5
2016-11-18T04:14:25.017Z,91.31
2016-11-18T04:15:24.413Z,91.78
2016-11-18T04:16:25.045Z,91.98
2016-11-18T04:17:24.706Z,92.17
2016-11-18T04:18:25.030Z,91.6
2016-11-18T04:19:24.688Z,91.21
2016-11-18T04:20:24.703Z,91.31
2016-11-18T04:21:25.047Z,91.21
2016-11-18T04:22:25.263Z,91.02
2016-11-18T04:23:25.178Z,91.31
2016-11-18T04:24:25.177Z,91.6
2016-11-18T04:25:24.940Z,91.78
2016-11-18T04:26:24.931Z,90.93
2016-11-18T04:27:24.904Z,91.69
2016-11-18T04:28:25.014Z,92.55
2016-11-18T04:29:25.024Z,92.07
2016-11-18T04:30:24.797Z,91.88
2016-11-18T04:31:24.913Z,92.17
2016-11-18T04:32:25.434Z,91.5
2016-11-18T04:33:25.276Z,91.12
2016-11-18T04:34:24.913Z,91.69
2016-11-18T04:35:25.183Z,91.78
2016-11-18T04:36:24.945Z,91.98
2016-11-18T04:37:25.380Z,91.6
2016-11-18T04:38:24.946Z,91.78
2016-11-18T04:39:25.136Z,90.93
2016-11-18T04:40:25.200Z,91.12
2016-11-18T04:41:25.266Z,91.02
2016-11-18T04:42:25.569Z,91.98
2016-11-18T04:43:25.047Z,90.73
2016-11-18T04:44:25.761Z,91.31
2016-11-18T04:45:25.544Z,91.02
2016-11-18T04:46:25.664Z,90.55
2016-11-18T04:47:25.310Z,90.83
2016-11-18T04:48:25.182Z,91.31
2016-11-18T04:49:25.400Z,91.12
2016-11-18T04:50:25.312Z,91.41
2016-11-18T04:51:25.289Z,92.17
2016-11-18T04:52:25.510Z,91.98
2016-11-18T04:53:25.771Z,92.12
2016-11-18T04:54:25.923Z,91.36
2016-11-18T04:55:25.552Z,91.5
2016-11-18T04:56:25.535Z,91.41
2016-11-18T04:57:25.526Z,90.36
2016-11-18T04:58:25.994Z,90.55
2016-11-18T04:59:26.031Z,90.64
2016-11-18T05:00:25.753Z,90.17
2016-11-18T05:01:25.768Z,90.55
2016-11-18T05:02:25.692Z,91.6
2016-11-18T05:03:25.554Z,91.41
2016-11-18T05:04:25.647Z,91.78
2016-11-18T05:05:25.645Z,90.93
2016-11-18T05:06:26.262Z,91.21
2016-11-18T05:07:25.316Z,91.78
2016-11-18T05:08:25.393Z,91.69
2016-11-18T05:09:26.167Z,92.83
2016-11-18T05:10:25.756Z,92.79
2016-11-18T05:11:25.921Z,92.12
2016-11-18T05:12:25.992Z,91.98
2016-11-18T05:13:25.758Z,92.26
2016-11-18T05:14:26.124Z,91.69
2016-11-18T05:15:25.797Z,91.98
2016-11-18T05:16:25.883Z,91.5
2016-11-18T05:17:26.160Z,91.78
2016-11-18T05:18:25.879Z,91.69
2016-11-18T05:19:25.769Z,92.26
2016-11-18T05:20:25.808Z,92.88
2016-11-18T05:21:25.805Z,92.6
2016-11-18T05:22:25.801Z,92.79
2016-11-18T05:23:26.147Z,92.98
2016-11-18T05:24:26.169Z,92.79
2016-11-18T05:25:25.929Z,92.88
2016-11-18T05:26:26.068Z,93.55
2016-11-18T05:27:26.399Z,92.88
2016-11-18T05:28:26.659Z,93.27
2016-11-18T05:29:26.409Z,93.74
2016-11-18T05:30:25.812Z,93.65
2016-11-18T05:31:26.005Z,94.41
2016-11-18T05:32:26.510Z,93.74
2016-11-18T05:33:26.166Z,93.84
2016-11-18T05:34:26.527Z,93.46
2016-11-18T05:35:26.653Z,94.12
2016-11-18T05:36:27.123Z,93.17
2016-11-18T05:37:26.441Z,93.84
2016-11-18T05:38:26.532Z,93.65
2016-11-18T05:39:26.497Z,94.03
2016-11-18T05:40:27.094Z,94.51
2016-11-18T05:41:27.139Z,94.32
2016-11-18T05:42:26.650Z,94.79
2016-11-18T05:43:27.095Z,95.46
2016-11-18T05:44:27.138Z,95.46
2016-11-18T05:45:26.495Z,95.56
2016-11-18T05:46:26.544Z,95.75
2016-11-18T05:47:27.010Z,95.84
2016-11-18T05:48:26.904Z,95.94
2016-11-18T05:49:26.422Z,96.13
2016-11-18T05:50:27.604Z,95.75
2016-11-18T05:51:26.659Z,96.22
2016-11-18T05:52:26.638Z,96.03
2016-11-18T05:53:27.354Z,96.32
2016-11-18T05:54:27.251Z,97.08
2016-11-18T05:55:27.017Z,97.08
2016-11-18T05:56:26.899Z,97.27
2016-11-18T05:57:26.668Z,96.8
2016-11-18T05:58:27.742Z,96.98
2016-11-18T05:59:27.510Z,96.41
2016-11-18T06:00:27.460Z,96.61
2016-11-18T06:01:27.625Z,96.89
2016-11-18T06:02:27.458Z,97.66
2016-11-18T06:03:26.997Z,98.03
2016-11-18T06:04:27.029Z,97.56
2016-11-18T06:05:26.916Z,96.7
2016-11-18T06:06:26.993Z,97.46
2016-11-18T06:07:27.495Z,98.03
2016-11-18T06:08:27.149Z,97.27
2016-11-18T06:09:26.673Z,97.08
2016-11-18T06:10:27.151Z,96.98
2016-11-18T06:11:26.787Z,97.17
